Time;durP1;ratioP1;P1;durP2;ratioP2;P2;SDS_P1;SDS_P2;PMS_P1;PMS_P2;Temp;Humidity;BMP_temperature;BMP_pressure;BME280_temperature;BME280_humidity;BME280_pressure;Samples;Min_cycle;Max_cycle;Signal;HPM_P1;HPM_P2
2021/08/20 00:02:13;;;;;;;69.78;34.75;;;14.80;99.90;;;;;;4977513;28;20077;-71
2021/08/20 00:04:40;;;;;;;75.07;37.85;;;14.80;99.90;;;;;;4961407;28;20363;-73
2021/08/20 00:07:06;;;;;;;73.72;34.10;;;14.80;99.90;;;;;;4963436;28;20142;-70
2021/08/20 00:09:33;;;;;;;65.78;33.53;;;14.70;99.90;;;;;;4998735;28;20471;-72
2021/08/20 00:12:01;;;;;;;63.40;33.70;;;14.70;99.90;;;;;;4981643;28;20054;-72
2021/08/20 00:14:27;;;;;;;69.55;33.58;;;14.70;99.90;;;;;;4990711;28;20418;-71
2021/08/20 00:16:54;;;;;;;57.10;30.27;;;14.70;99.90;;;;;;4985153;28;20054;-72
2021/08/20 00:19:21;;;;;;;59.83;32.65;;;14.80;99.90;;;;;;4981924;28;20542;-72
2021/08/20 00:21:48;;;;;;;57.28;31.15;;;14.80;99.90;;;;;;4983338;28;20618;-71
2021/08/20 00:24:16;;;;;;;49.50;27.58;;;14.80;99.90;;;;;;4982142;28;20142;-72
2021/08/20 00:26:43;;;;;;;48.42;28.13;;;14.70;99.90;;;;;;4980276;28;20070;-72
2021/08/20 00:29:10;;;;;;;46.58;27.10;;;14.80;99.90;;;;;;4962602;28;20150;-72
2021/08/20 00:31:36;;;;;;;49.45;27.45;;;14.70;99.90;;;;;;4981544;28;20062;-72
2021/08/20 00:34:04;;;;;;;43.17;24.67;;;14.80;99.90;;;;;;4966562;28;20044;-71
2021/08/20 00:36:31;;;;;;;40.78;23.90;;;14.80;99.90;;;;;;4972908;28;20121;-72
2021/08/20 00:38:59;;;;;;;34.72;20.92;;;14.70;99.90;;;;;;4982907;28;20046;-73
2021/08/20 00:41:26;;;;;;;36.03;22.95;;;14.80;99.90;;;;;;4964439;28;20577;-73
2021/08/20 00:43:53;;;;;;;37.15;21.58;;;14.80;99.90;;;;;;5006753;28;20124;-72
2021/08/20 00:46:20;;;;;;;30.38;20.55;;;14.80;99.90;;;;;;4995240;28;20050;-71
2021/08/20 00:48:46;;;;;;;33.63;20.25;;;14.70;99.90;;;;;;4983224;28;20372;-73
2021/08/20 00:51:33;;;;;;;35.80;22.67;;;14.70;99.90;;;;;;4983045;28;20052;-72
2021/08/20 00:54:00;;;;;;;35.05;20.80;;;14.70;99.90;;;;;;4997751;28;20054;-73
2021/08/20 00:56:28;;;;;;;41.28;20.27;;;14.80;99.90;;;;;;4981503;28;20585;-72
2021/08/20 00:58:55;;;;;;;31.67;19.85;;;14.80;99.90;;;;;;4982328;28;20468;-71
2021/08/20 01:01:22;;;;;;;37.53;19.85;;;14.80;99.90;;;;;;4977520;28;20051;-72
2021/08/20 01:03:49;;;;;;;37.63;21.40;;;14.80;99.90;;;;;;4981284;28;20054;-72
2021/08/20 01:06:16;;;;;;;35.20;20.00;;;14.70;99.90;;;;;;4968068;28;20051;-73
2021/08/20 01:08:43;;;;;;;31.20;19.25;;;14.70;99.90;;;;;;4984605;28;20065;-72
2021/08/20 01:11:11;;;;;;;34.65;19.58;;;14.80;99.90;;;;;;5004103;28;20093;-72
2021/08/20 01:13:41;;;;;;;30.65;17.63;;;14.70;99.90;;;;;;4993462;28;20127;-73
2021/08/20 01:16:09;;;;;;;29.60;17.05;;;14.80;99.90;;;;;;4988782;28;20054;-73
2021/08/20 01:18:41;;;;;;;27.20;16.85;;;14.70;99.90;;;;;;4984247;28;20265;-72
2021/08/20 01:21:08;;;;;;;28.10;18.92;;;14.70;99.90;;;;;;4968774;28;20057;-73
2021/08/20 01:23:37;;;;;;;29.60;19.30;;;14.80;99.90;;;;;;4976833;28;20473;-71
2021/08/20 01:26:06;;;;;;;27.38;18.10;;;14.80;99.90;;;;;;4985008;28;20077;-71
2021/08/20 01:28:34;;;;;;;31.65;18.20;;;14.70;99.90;;;;;;4984165;28;20421;-72
2021/08/20 01:31:13;;;;;;;28.63;18.70;;;14.80;99.90;;;;;;4981333;28;20085;-71
2021/08/20 01:33:41;;;;;;;30.58;18.92;;;14.90;99.90;;;;;;4938223;28;20053;-71
2021/08/20 01:36:10;;;;;;;30.17;19.33;;;14.90;99.90;;;;;;4968220;28;20058;-72
2021/08/20 01:38:49;;;;;;;34.28;18.98;;;14.90;99.90;;;;;;4949694;28;20038;-72
2021/08/20 01:41:17;;;;;;;33.03;19.63;;;14.90;99.90;;;;;;4964210;28;20055;-71
2021/08/20 01:43:44;;;;;;;31.33;19.05;;;14.90;99.90;;;;;;4986670;28;20069;-72
2021/08/20 01:46:11;;;;;;;34.33;19.80;;;14.90;99.90;;;;;;4996056;28;20050;-72
2021/08/20 01:48:49;;;;;;;34.08;19.38;;;14.90;99.90;;;;;;4988387;28;20363;-72
2021/08/20 01:51:17;;;;;;;30.40;18.98;;;14.90;99.90;;;;;;5005361;28;20498;-72
2021/08/20 01:53:47;;;;;;;35.95;19.83;;;15.00;99.90;;;;;;4988030;28;20057;-71
2021/08/20 01:56:15;;;;;;;30.08;18.52;;;15.00;99.90;;;;;;5005658;28;20058;-73
2021/08/20 01:58:43;;;;;;;36.80;20.95;;;14.90;99.90;;;;;;4967823;28;20124;-72
2021/08/20 02:01:12;;;;;;;34.50;21.50;;;14.90;99.90;;;;;;4984168;28;20138;-72
2021/08/20 02:03:39;;;;;;;33.95;19.67;;;14.90;99.90;;;;;;4968629;28;20046;-72
2021/08/20 02:06:07;;;;;;;35.95;20.27;;;14.90;99.90;;;;;;4968053;28;20054;-72
2021/08/20 02:08:39;;;;;;;37.20;21.05;;;14.90;99.90;;;;;;4984523;28;20269;-70
2021/08/20 02:11:06;;;;;;;32.20;20.48;;;14.90;99.90;;;;;;4967626;28;20065;-71
2021/08/20 02:13:34;;;;;;;41.80;22.08;;;14.80;99.90;;;;;;4990877;28;20129;-72
2021/08/20 02:16:06;;;;;;;35.47;21.63;;;14.80;99.90;;;;;;4988260;28;20132;-71
2021/08/20 02:18:33;;;;;;;36.33;20.85;;;14.80;99.90;;;;;;4982023;28;20174;-72
2021/08/20 02:21:01;;;;;;;30.80;20.15;;;14.70;99.90;;;;;;4967457;28;20046;-72
2021/08/20 02:23:32;;;;;;;32.72;20.23;;;14.70;99.90;;;;;;4984720;28;20408;-72
2021/08/20 02:26:01;;;;;;;34.63;21.27;;;14.70;99.90;;;;;;4983307;28;20146;-72
2021/08/20 02:28:28;;;;;;;38.97;21.30;;;14.70;99.90;;;;;;4983121;28;20505;-72
2021/08/20 02:30:58;;;;;;;35.25;20.40;;;14.60;99.90;;;;;;4983190;28;20744;-71
2021/08/20 02:33:25;;;;;;;40.38;23.42;;;14.60;99.90;;;;;;4999986;28;20149;-71
2021/08/20 02:35:54;;;;;;;40.78;21.92;;;14.60;99.90;;;;;;4999864;28;20048;-71
2021/08/20 02:38:21;;;;;;;36.65;21.63;;;14.60;99.90;;;;;;4967654;28;20068;-71
2021/08/20 02:40:48;;;;;;;44.15;23.67;;;14.50;99.90;;;;;;4966039;28;20390;-71
2021/08/20 02:43:15;;;;;;;49.25;25.02;;;14.60;99.90;;;;;;4989152;28;20588;-72
2021/08/20 02:45:44;;;;;;;43.53;23.20;;;14.70;99.90;;;;;;4978150;28;20701;-72
2021/08/20 02:48:11;;;;;;;39.30;22.65;;;14.50;99.90;;;;;;4968366;28;20046;-71
2021/08/20 02:50:38;;;;;;;40.17;22.02;;;14.40;99.90;;;;;;4976484;28;20049;-72
2021/08/20 02:53:05;;;;;;;40.40;23.02;;;14.40;99.90;;;;;;4987344;28;20422;-71
2021/08/20 02:55:33;;;;;;;42.97;23.88;;;14.40;99.90;;;;;;4983655;28;20234;-71
2021/08/20 02:58:00;;;;;;;44.08;23.63;;;14.40;99.90;;;;;;4983486;28;20042;-72
2021/08/20 03:00:32;;;;;;;43.97;23.10;;;14.40;99.90;;;;;;4965883;28;20077;-72
2021/08/20 03:03:01;;;;;;;50.33;25.88;;;14.40;99.90;;;;;;4967065;28;20153;-73
2021/08/20 03:05:28;;;;;;;51.97;25.85;;;14.40;99.90;;;;;;4965748;28;20112;-71
2021/08/20 03:07:55;;;;;;;47.72;26.13;;;14.40;99.90;;;;;;4985047;28;20050;-72
2021/08/20 03:10:26;;;;;;;50.95;26.40;;;14.40;99.90;;;;;;4968207;28;20046;-71
2021/08/20 03:12:53;;;;;;;57.15;26.67;;;14.40;99.90;;;;;;5004546;28;20491;-72
2021/08/20 03:15:20;;;;;;;52.70;27.27;;;14.30;99.90;;;;;;4994085;28;20578;-71
2021/08/20 03:17:48;;;;;;;57.22;27.75;;;14.30;99.90;;;;;;4965529;28;20546;-71
2021/08/20 03:20:15;;;;;;;57.25;27.88;;;14.20;99.90;;;;;;4983383;28;20193;-72
2021/08/20 03:22:42;;;;;;;57.35;28.17;;;14.20;99.90;;;;;;4982262;28;20545;-71
2021/08/20 03:25:14;;;;;;;48.60;27.60;;;14.20;99.90;;;;;;4964206;28;20168;-72
2021/08/20 03:27:41;;;;;;;59.17;29.00;;;14.20;99.90;;;;;;4964865;28;20055;-71
2021/08/20 03:30:26;;;;;;;;;;;14.20;99.90;;;;;;4981651;28;20133;-71
2021/08/20 03:32:59;;;;;;;53.40;27.80;;;14.30;99.90;;;;;;4999189;28;20024;-72
2021/08/20 03:35:27;;;;;;;53.40;27.83;;;14.30;99.90;;;;;;4977706;28;20348;-72
2021/08/20 03:37:58;;;;;;;55.97;27.23;;;14.30;99.90;;;;;;4963274;28;20050;-71
2021/08/20 03:40:28;;;;;;;52.22;27.77;;;14.40;99.90;;;;;;4964056;28;20061;-71
2021/08/20 03:42:58;;;;;;;51.00;27.52;;;14.40;99.90;;;;;;4975395;28;20083;-72
2021/08/20 03:45:30;;;;;;;55.50;28.25;;;14.40;99.90;;;;;;4993575;28;20046;-72
2021/08/20 03:47:58;;;;;;;49.83;27.02;;;14.40;99.90;;;;;;4982419;28;20050;-72
2021/08/20 03:50:25;;;;;;;56.05;28.17;;;14.50;99.90;;;;;;4980569;28;20569;-71
2021/08/20 03:52:52;;;;;;;56.45;28.15;;;14.50;99.90;;;;;;4965978;28;20073;-72
2021/08/20 03:55:20;;;;;;;55.28;28.13;;;14.50;99.90;;;;;;4979950;28;20046;-72
2021/08/20 03:58:13;;;;;;;52.45;27.20;;;14.50;99.90;;;;;;4969236;28;20587;-72
2021/08/20 04:00:45;;;;;;;49.08;27.90;;;14.50;99.90;;;;;;4980656;28;20388;-70
2021/08/20 04:03:14;;;;;;;52.88;26.27;;;14.50;99.90;;;;;;4981990;28;20229;-71
2021/08/20 04:05:41;;;;;;;57.05;27.33;;;14.50;99.90;;;;;;4980977;28;20120;-72
2021/08/20 04:08:16;;;;;;;52.50;26.58;;;14.50;99.90;;;;;;4983936;28;20050;-71
2021/08/20 04:11:13;;;;;;;54.08;27.67;;;14.50;99.90;;;;;;5013735;28;20058;-72
2021/08/20 04:14:02;;;;;;;49.20;26.85;;;14.50;99.90;;;;;;4982038;28;20208;-72
2021/08/20 04:16:30;;;;;;;48.45;27.65;;;14.60;99.90;;;;;;4996537;28;20058;-70
2021/08/20 04:18:58;;;;;;;52.92;26.42;;;14.60;99.90;;;;;;4978264;28;20181;-71
2021/08/20 04:21:25;;;;;;;47.53;27.02;;;14.60;99.90;;;;;;4978869;28;20060;-72
2021/08/20 04:23:53;;;;;;;44.53;25.75;;;14.70;99.90;;;;;;4980570;28;20055;-71
2021/08/20 04:26:20;;;;;;;47.67;25.95;;;14.70;99.90;;;;;;4964170;28;20656;-71
2021/08/20 04:29:13;;;;;;;47.45;26.55;;;14.70;99.90;;;;;;4985651;28;20089;-71
2021/08/20 04:32:01;;;;;;;50.17;26.58;;;14.60;99.90;;;;;;4964254;28;20676;-72
2021/08/20 04:34:46;;;;;;;50.22;25.95;;;14.70;99.90;;;;;;4981362;28;20058;-71
2021/08/20 04:37:42;;;;;;;51.15;26.27;;;14.70;99.90;;;;;;4977827;28;20137;-72
2021/08/20 04:40:28;;;;;;;51.90;28.20;;;14.70;99.90;;;;;;4967422;28;20049;-73
2021/08/20 04:43:03;;;;;;;55.25;27.60;;;14.70;99.90;;;;;;4973262;28;20050;-72
2021/08/20 04:45:55;;;;;;;50.33;27.33;;;14.60;99.90;;;;;;4987875;28;20426;-72
2021/08/20 04:48:45;;;;;;;52.33;26.77;;;14.60;99.90;;;;;;4988930;28;20148;-72
2021/08/20 04:51:43;;;;;;;48.47;25.98;;;14.60;99.90;;;;;;5008620;28;20046;-73
2021/08/20 04:54:26;;;;;;;44.75;25.73;;;14.60;99.90;;;;;;4971336;28;20125;-73
2021/08/20 04:56:56;;;;;;;48.92;26.80;;;14.70;99.90;;;;;;4985927;28;20058;-74
2021/08/20 04:59:23;;;;;;;46.50;26.63;;;14.60;99.90;;;;;;5000911;28;20097;-73
2021/08/20 05:01:50;;;;;;;49.47;28.75;;;14.60;99.90;;;;;;5000440;28;20508;-73
2021/08/20 05:04:17;;;;;;;52.80;29.70;;;14.60;99.90;;;;;;4984279;28;20066;-73
2021/08/20 05:06:44;;;;;;;53.03;29.42;;;14.60;99.90;;;;;;4983589;28;20052;-73
2021/08/20 05:09:11;;;;;;;48.47;28.08;;;14.60;99.90;;;;;;4983302;28;20100;-74
2021/08/20 05:11:38;;;;;;;46.53;27.98;;;14.60;99.90;;;;;;4986794;28;20042;-72
2021/08/20 05:14:05;;;;;;;52.08;30.15;;;14.70;99.90;;;;;;4987175;28;20054;-73
2021/08/20 05:16:32;;;;;;;51.85;28.98;;;14.70;99.90;;;;;;4999520;28;20057;-73
2021/08/20 05:18:58;;;;;;;56.05;31.85;;;14.70;99.90;;;;;;4978795;28;20431;-73
2021/08/20 05:21:25;;;;;;;54.50;30.77;;;14.70;99.90;;;;;;4984086;28;20046;-73
2021/08/20 05:23:52;;;;;;;56.00;32.72;;;14.70;99.90;;;;;;4985097;28;20055;-73
2021/08/20 05:26:19;;;;;;;53.58;32.20;;;14.70;99.90;;;;;;4984234;28;20042;-72
2021/08/20 05:28:45;;;;;;;58.40;32.88;;;14.70;99.90;;;;;;4956002;28;20046;-71
2021/08/20 05:31:12;;;;;;;61.08;34.63;;;14.70;99.90;;;;;;4965592;28;20678;-73
2021/08/20 05:33:39;;;;;;;74.43;39.00;;;14.70;99.90;;;;;;4947627;28;20109;-72
2021/08/20 05:36:06;;;;;;;83.55;43.15;;;14.60;99.90;;;;;;4971103;28;20106;-73
2021/08/20 05:38:33;;;;;;;91.43;43.72;;;14.70;99.90;;;;;;4967497;28;20305;-72
2021/08/20 05:41:00;;;;;;;95.47;46.42;;;14.70;99.90;;;;;;4988889;28;20223;-72
2021/08/20 05:43:31;;;;;;;90.63;44.58;;;14.60;99.90;;;;;;4957695;28;20046;-71
2021/08/20 05:45:58;;;;;;;93.63;45.60;;;14.60;99.90;;;;;;4992958;28;20050;-72
2021/08/20 05:48:25;;;;;;;102.43;49.83;;;14.60;99.90;;;;;;4999060;28;20279;-70
2021/08/20 05:50:51;;;;;;;109.50;49.95;;;14.70;99.90;;;;;;4984692;28;20058;-72
2021/08/20 05:53:18;;;;;;;110.05;53.58;;;14.60;99.90;;;;;;4985564;28;20089;-72
2021/08/20 05:55:45;;;;;;;109.70;52.28;;;14.70;99.90;;;;;;4984769;28;20105;-71
2021/08/20 05:58:12;;;;;;;113.28;53.22;;;14.70;99.90;;;;;;4984771;28;20053;-73
2021/08/20 06:00:39;;;;;;;104.68;49.22;;;14.70;99.90;;;;;;4982642;28;20121;-71
2021/08/20 06:03:08;;;;;;;112.38;53.40;;;14.70;99.90;;;;;;4983889;28;20073;-72
2021/08/20 06:05:39;;;;;;;110.65;51.80;;;14.70;99.90;;;;;;4993341;28;20258;-71
2021/08/20 06:08:07;;;;;;;102.35;49.90;;;14.70;99.90;;;;;;4965197;28;20109;-71
2021/08/20 06:10:33;;;;;;;98.75;50.22;;;14.60;99.90;;;;;;4983623;28;20062;-71
2021/08/20 06:13:02;;;;;;;91.93;46.72;;;14.60;99.90;;;;;;4985350;28;20092;-72
2021/08/20 06:15:29;;;;;;;94.28;45.05;;;14.50;99.90;;;;;;4990893;28;20430;-71
2021/08/20 06:17:56;;;;;;;91.60;46.83;;;14.50;99.90;;;;;;5003687;28;20054;-71
2021/08/20 06:20:22;;;;;;;86.70;46.40;;;14.60;99.90;;;;;;5013286;28;20062;-70
2021/08/20 06:22:49;;;;;;;80.88;44.72;;;14.70;99.90;;;;;;4983874;28;20116;-71
2021/08/20 06:25:16;;;;;;;83.93;46.00;;;14.60;99.90;;;;;;4984521;28;20105;-72
2021/08/20 06:27:43;;;;;;;79.03;42.92;;;14.60;99.90;;;;;;4984298;28;20116;-70
2021/08/20 06:30:10;;;;;;;87.75;44.88;;;14.60;99.90;;;;;;4983076;28;20128;-71
2021/08/20 06:32:36;;;;;;;73.05;42.25;;;14.60;99.90;;;;;;4985029;28;20078;-72
2021/08/20 06:35:04;;;;;;;76.57;42.03;;;14.60;99.90;;;;;;4965915;28;20291;-71
2021/08/20 06:37:31;;;;;;;69.88;39.40;;;14.60;99.90;;;;;;4983203;28;20054;-71
2021/08/20 06:39:58;;;;;;;60.50;37.15;;;14.60;99.90;;;;;;4966076;28;20070;-71
2021/08/20 06:42:25;;;;;;;77.28;38.92;;;14.60;99.90;;;;;;4967370;28;20042;-71
2021/08/20 06:44:52;;;;;;;59.00;36.30;;;14.60;99.90;;;;;;4990115;28;20042;-71
2021/08/20 06:47:18;;;;;;;60.75;37.55;;;14.60;99.90;;;;;;4985844;28;20046;-71
2021/08/20 06:49:45;;;;;;;66.50;37.80;;;14.70;99.90;;;;;;5005251;28;20049;-71
2021/08/20 06:52:12;;;;;;;49.58;31.10;;;14.70;99.90;;;;;;4988483;28;20422;-71
2021/08/20 06:54:39;;;;;;;59.15;34.00;;;14.70;99.90;;;;;;4984063;28;20510;-71
2021/08/20 06:57:06;;;;;;;55.13;31.40;;;14.70;99.90;;;;;;4983359;28;20050;-72
2021/08/20 06:59:33;;;;;;;54.35;32.97;;;14.70;99.90;;;;;;4983324;28;20058;-72
2021/08/20 07:01:59;;;;;;;55.90;34.08;;;14.80;99.90;;;;;;4984338;28;20058;-71
2021/08/20 07:04:27;;;;;;;49.55;33.00;;;14.80;99.90;;;;;;4983054;28;20059;-72
2021/08/20 07:06:55;;;;;;;59.50;35.70;;;14.90;99.90;;;;;;4991890;28;20083;-71
2021/08/20 07:09:24;;;;;;;48.72;32.70;;;14.80;99.90;;;;;;4967417;28;20118;-72
2021/08/20 07:11:51;;;;;;;53.28;32.17;;;14.80;99.90;;;;;;4983532;28;20050;-71
2021/08/20 07:14:18;;;;;;;53.88;32.88;;;14.90;99.90;;;;;;4993219;28;20039;-72
2021/08/20 07:16:46;;;;;;;57.35;35.95;;;15.00;99.90;;;;;;5000009;28;20069;-72
2021/08/20 07:19:13;;;;;;;53.05;32.47;;;15.10;99.90;;;;;;5018932;28;20470;-71
2021/08/20 07:21:40;;;;;;;48.28;31.55;;;15.30;99.90;;;;;;4986057;28;20058;-72
2021/08/20 07:24:07;;;;;;;48.95;31.15;;;15.40;99.90;;;;;;4984584;28;20117;-71
2021/08/20 07:26:33;;;;;;;48.78;31.27;;;15.40;99.90;;;;;;4966179;28;20068;-72
2021/08/20 07:29:03;;;;;;;47.33;31.65;;;15.30;99.90;;;;;;4984774;28;20120;-72
2021/08/20 07:31:30;;;;;;;39.83;27.60;;;15.40;99.90;;;;;;4982445;28;20116;-72
2021/08/20 07:33:57;;;;;;;48.47;30.13;;;15.40;99.90;;;;;;4982635;28;20395;-72
2021/08/20 07:36:23;;;;;;;41.30;27.70;;;15.60;99.90;;;;;;4998943;28;20058;-71
2021/08/20 07:38:50;;;;;;;45.47;27.08;;;15.60;99.90;;;;;;4966936;28;20054;-72
2021/08/20 07:41:17;;;;;;;41.42;27.17;;;15.80;99.90;;;;;;4981024;28;20054;-71
2021/08/20 07:43:44;;;;;;;41.55;27.75;;;15.90;99.90;;;;;;4992067;28;20071;-72
2021/08/20 07:46:11;;;;;;;38.05;25.98;;;16.20;99.90;;;;;;4995239;28;20053;-73
2021/08/20 07:48:37;;;;;;;37.88;26.10;;;16.50;99.90;;;;;;4985388;28;20080;-73
2021/08/20 07:51:05;;;;;;;36.97;25.50;;;16.70;99.90;;;;;;4998769;28;20066;-72
2021/08/20 07:53:31;;;;;;;40.47;29.10;;;16.60;99.90;;;;;;4998001;28;20054;-71
2021/08/20 07:55:59;;;;;;;43.45;28.75;;;16.60;99.90;;;;;;4998484;28;20050;-73
2021/08/20 07:58:25;;;;;;;40.10;28.02;;;16.50;99.90;;;;;;4965218;28;20065;-71
2021/08/20 08:00:52;;;;;;;43.97;30.83;;;16.40;99.90;;;;;;4982070;28;20046;-71
2021/08/20 08:03:20;;;;;;;47.15;31.88;;;16.40;99.90;;;;;;4982893;28;20066;-72
2021/08/20 08:05:47;;;;;;;46.05;31.65;;;16.20;99.90;;;;;;4980994;28;20361;-72
2021/08/20 08:08:14;;;;;;;43.45;30.65;;;16.50;99.90;;;;;;4966698;28;20054;-72
2021/08/20 08:10:41;;;;;;;42.67;29.75;;;16.70;99.90;;;;;;4981659;28;20070;-72
2021/08/20 08:13:08;;;;;;;36.47;28.58;;;17.00;99.90;;;;;;4989807;28;20050;-72
2021/08/20 08:15:35;;;;;;;38.80;28.42;;;17.10;99.90;;;;;;5026318;28;20058;-71
2021/08/20 08:18:02;;;;;;;42.78;32.42;;;16.90;99.90;;;;;;5001384;28;20527;-71
2021/08/20 08:20:29;;;;;;;46.00;32.10;;;16.90;99.90;;;;;;5003182;28;20049;-72
2021/08/20 08:22:56;;;;;;;44.60;33.53;;;16.70;99.90;;;;;;4992170;28;20046;-72
2021/08/20 08:25:24;;;;;;;44.50;32.83;;;16.50;99.90;;;;;;4981157;28;20486;-72
2021/08/20 08:27:58;;;;;;;41.88;31.63;;;16.40;99.90;;;;;;4980067;28;20046;-71
2021/08/20 08:30:28;;;;;;;42.47;32.20;;;16.80;99.90;;;;;;4981366;28;20042;-72
2021/08/20 08:32:57;;;;;;;41.50;32.78;;;17.30;99.90;;;;;;4966292;28;20042;-72
2021/08/20 08:35:28;;;;;;;36.33;32.22;;;17.80;99.90;;;;;;4998566;28;20077;-73
2021/08/20 08:38:12;;;;;;;42.97;32.78;;;18.00;99.90;;;;;;4980936;28;20477;-72
2021/08/20 08:40:45;;;;;;;42.38;35.03;;;17.60;99.90;;;;;;4982815;28;20050;-71
2021/08/20 08:43:13;;;;;;;40.72;34.40;;;17.40;99.90;;;;;;4969738;28;20057;-71
2021/08/20 08:45:40;;;;;;;43.53;35.25;;;17.30;99.90;;;;;;4993393;28;20100;-72
2021/08/20 08:48:09;;;;;;;45.92;35.05;;;17.40;99.90;;;;;;4997977;28;20060;-71
2021/08/20 08:50:36;;;;;;;41.30;34.13;;;17.70;99.90;;;;;;5000734;28;20057;-72
2021/08/20 08:53:04;;;;;;;41.25;36.78;;;18.00;99.90;;;;;;5000178;28;20077;-71
2021/08/20 08:55:48;;;;;;;43.97;35.50;;;18.10;99.90;;;;;;4965632;28;20552;-72
2021/08/20 08:58:15;;;;;;;43.15;35.45;;;18.40;99.90;;;;;;4980792;28;20153;-73
2021/08/20 09:00:42;;;;;;;39.85;35.72;;;18.70;99.90;;;;;;4982172;28;20106;-73
2021/08/20 09:03:28;;;;;;;42.28;37.60;;;19.00;99.90;;;;;;4982621;28;20062;-72
2021/08/20 09:05:58;;;;;;;38.03;33.80;;;19.30;99.90;;;;;;4965050;28;20080;-72
2021/08/20 09:08:27;;;;;;;40.22;35.70;;;19.20;99.90;;;;;;4965425;28;20054;-73
2021/08/20 09:11:01;;;;;;;42.15;36.70;;;18.80;99.90;;;;;;5013840;28;20051;-71
2021/08/20 09:13:30;;;;;;;37.55;33.67;;;18.80;99.90;;;;;;4974949;28;20316;-72
2021/08/20 09:16:13;;;;;;;36.75;32.83;;;18.80;99.90;;;;;;4988172;28;20141;-72
2021/08/20 09:18:41;;;;;;;32.92;29.42;;;19.00;99.90;;;;;;4982285;28;20527;-72
2021/08/20 09:21:15;;;;;;;37.50;33.45;;;19.10;99.90;;;;;;4982961;28;20352;-72
2021/08/20 09:23:42;;;;;;;36.05;32.17;;;19.30;99.90;;;;;;4981964;28;20054;-73
2021/08/20 09:26:09;;;;;;;35.88;32.00;;;19.20;99.90;;;;;;4982997;28;20046;-72
2021/08/20 09:28:35;;;;;;;36.78;32.17;;;19.20;99.90;;;;;;4968358;28;20100;-73
2021/08/20 09:31:07;;;;;;;40.45;34.90;;;18.90;99.90;;;;;;4985185;28;20054;-71
2021/08/20 09:33:43;;;;;;;37.83;33.20;;;19.00;99.90;;;;;;4986631;28;20052;-72
2021/08/20 09:36:12;;;;;;;41.03;35.47;;;19.00;99.90;;;;;;4984771;28;20053;-73
2021/08/20 09:38:41;;;;;;;38.40;33.88;;;18.80;99.90;;;;;;4985119;28;20451;-71
2021/08/20 09:41:15;;;;;;;42.85;37.25;;;18.70;99.90;;;;;;4985614;28;20050;-72
2021/08/20 09:43:46;;;;;;;42.33;35.65;;;18.70;99.90;;;;;;4994717;28;20073;-73
2021/08/20 09:46:18;;;;;;;41.20;33.97;;;18.70;99.90;;;;;;4980149;28;20049;-72
2021/08/20 09:49:01;;;;;;;38.65;33.00;;;18.70;99.90;;;;;;5003467;28;20145;-73
2021/08/20 09:51:43;;;;;;;32.47;29.00;;;18.70;99.90;;;;;;4984072;28;20046;-72
2021/08/20 09:54:17;;;;;;;36.13;32.03;;;19.30;99.90;;;;;;4980203;28;20047;-72
2021/08/20 09:57:00;;;;;;;31.55;28.17;;;19.70;99.90;;;;;;4964544;28;20145;-73
2021/08/20 09:59:30;;;;;;;31.98;28.10;;;20.20;99.90;;;;;;4984611;28;20502;-74
2021/08/20 10:02:00;;;;;;;28.10;25.55;;;20.60;99.90;;;;;;4984520;28;20038;-72
2021/08/20 10:04:32;;;;;;;26.77;24.13;;;20.90;99.90;;;;;;4982356;28;20063;-72
2021/08/20 10:06:59;;;;;;;28.45;25.65;;;21.00;99.90;;;;;;4980107;28;20283;-72
2021/08/20 10:09:29;;;;;;;23.17;20.88;;;21.20;99.90;;;;;;4984271;28;20100;-71
2021/08/20 10:11:59;;;;;;;26.63;24.05;;;21.00;99.90;;;;;;4985749;28;20525;-71
2021/08/20 10:14:28;;;;;;;26.35;22.98;;;20.70;99.90;;;;;;4993444;28;20100;-72
2021/08/20 10:16:55;;;;;;;26.42;23.70;;;20.90;99.90;;;;;;4994681;28;20529;-73
2021/08/20 10:19:22;;;;;;;27.42;24.73;;;20.50;99.90;;;;;;4984202;28;20058;-74
2021/08/20 10:21:49;;;;;;;26.67;24.08;;;20.10;99.90;;;;;;4984946;28;20058;-74
2021/08/20 10:24:16;;;;;;;28.70;25.77;;;20.00;99.90;;;;;;4986980;28;20056;-74
2021/08/20 10:26:46;;;;;;;26.83;23.33;;;20.40;99.90;;;;;;4998529;28;20109;-75
2021/08/20 10:29:14;;;;;;;26.30;23.80;;;20.80;99.90;;;;;;4997527;28;20479;-73
2021/08/20 10:31:43;;;;;;;25.92;23.35;;;20.70;99.90;;;;;;4983559;28;20517;-74
2021/08/20 10:34:29;;;;;;;23.73;21.42;;;20.50;99.90;;;;;;4984478;28;20097;-74
2021/08/20 10:37:31;;;;;;;23.75;21.38;;;20.60;99.90;;;;;;4984158;28;20069;-74
2021/08/20 10:40:22;;;;;;;23.73;21.30;;;20.60;99.90;;;;;;4982717;28;20149;-75
2021/08/20 10:42:49;;;;;;;21.63;19.52;;;20.90;99.90;;;;;;5017662;28;20588;-73
2021/08/20 10:45:16;;;;;;;22.13;19.92;;;21.20;99.90;;;;;;4991450;28;20057;-75
2021/08/20 10:47:45;;;;;;;20.02;18.25;;;21.70;99.90;;;;;;4995720;28;20058;-73
2021/08/20 10:50:16;;;;;;;20.55;18.75;;;21.90;99.90;;;;;;4986078;28;20426;-73
2021/08/20 10:52:48;;;;;;;22.65;20.48;;;21.90;99.90;;;;;;4962880;28;20122;-73
2021/08/20 10:55:21;;;;;;;20.55;18.85;;;21.90;99.90;;;;;;4965269;28;20089;-74
2021/08/20 10:57:50;;;;;;;23.10;20.80;;;21.70;99.90;;;;;;4981372;28;20058;-74
2021/08/20 11:00:21;;;;;;;22.67;19.85;;;21.60;99.90;;;;;;4982185;28;20069;-74
2021/08/20 11:02:57;;;;;;;21.77;19.73;;;21.70;99.90;;;;;;4984743;28;20054;-72
2021/08/20 11:05:47;;;;;;;21.52;19.35;;;21.70;99.90;;;;;;4965735;28;20055;-73
2021/08/20 11:08:26;;;;;;;21.17;18.95;;;21.70;99.90;;;;;;4974105;28;20553;-74
2021/08/20 11:10:55;;;;;;;22.65;20.58;;;21.70;99.90;;;;;;4999952;28;20303;-74
2021/08/20 11:13:21;;;;;;;22.10;20.00;;;21.70;99.90;;;;;;4997034;28;20088;-73
2021/08/20 11:15:49;;;;;;;19.90;18.10;;;21.70;99.90;;;;;;4996852;28;20381;-73
2021/08/20 11:18:15;;;;;;;20.85;18.85;;;21.90;99.90;;;;;;4972288;28;20145;-74
2021/08/20 11:20:46;;;;;;;19.58;17.77;;;22.20;99.90;;;;;;4986411;28;20046;-74
2021/08/20 11:23:16;;;;;;;19.48;17.58;;;22.30;99.90;;;;;;4984980;28;20057;-74
2021/08/20 11:25:56;;;;;;;18.33;16.73;;;21.90;99.90;;;;;;4982978;28;20046;-75
2021/08/20 11:28:29;;;;;;;21.20;19.42;;;21.90;99.90;;;;;;4982265;28;20051;-75
2021/08/20 11:31:06;;;;;;;19.85;17.98;;;21.90;99.90;;;;;;4984289;28;20046;-73
2021/08/20 11:33:43;;;;;;;19.85;18.17;;;21.70;99.90;;;;;;4966483;28;20052;-73
2021/08/20 11:36:18;;;;;;;21.85;19.70;;;21.50;99.90;;;;;;4983344;28;20074;-73
2021/08/20 11:38:52;;;;;;;22.48;20.38;;;21.50;99.90;;;;;;4984717;28;20057;-73
2021/08/20 11:41:36;;;;;;;22.58;20.58;;;21.40;99.90;;;;;;4981808;28;20050;-73
2021/08/20 11:44:06;;;;;;;23.83;21.63;;;21.20;99.90;;;;;;4990816;28;20050;-73
2021/08/20 11:46:42;;;;;;;22.55;20.33;;;21.10;99.90;;;;;;4999745;28;20566;-74
2021/08/20 11:49:10;;;;;;;22.90;20.48;;;20.80;99.90;;;;;;4975350;28;20285;-74
2021/08/20 11:51:42;;;;;;;23.40;20.98;;;20.60;99.90;;;;;;4984272;28;20469;-74
2021/08/20 11:54:14;;;;;;;24.27;21.80;;;20.50;99.90;;;;;;4983590;28;20174;-75
2021/08/20 11:56:52;;;;;;;24.08;21.65;;;20.30;99.90;;;;;;4965452;28;20054;-75
2021/08/20 11:59:20;;;;;;;26.27;23.48;;;20.10;99.90;;;;;;4984126;28;20136;-75
2021/08/20 12:01:53;;;;;;;28.27;25.35;;;20.10;99.90;;;;;;4983365;28;20068;-75
2021/08/20 12:04:32;;;;;;;35.60;27.45;;;19.90;99.90;;;;;;4981300;28;20050;-75
2021/08/20 12:06:58;;;;;;;31.20;26.88;;;19.60;99.90;;;;;;4966596;28;20096;-75
2021/08/20 12:09:26;;;;;;;33.28;29.67;;;19.40;99.90;;;;;;5015003;28;20448;-74
2021/08/20 12:11:55;;;;;;;44.88;36.08;;;19.00;99.90;;;;;;4983071;28;20053;-74
2021/08/20 12:14:27;;;;;;;44.95;32.85;;;18.80;99.90;;;;;;4990313;28;20054;-74
2021/08/20 12:16:56;;;;;;;40.13;32.83;;;18.70;99.90;;;;;;4999588;28;20138;-74
2021/08/20 12:19:44;;;;;;;36.63;31.30;;;18.70;99.90;;;;;;4997096;28;20112;-74
2021/08/20 12:22:13;;;;;;;43.17;33.85;;;18.80;99.90;;;;;;4985213;28;20510;-74
2021/08/20 12:24:41;;;;;;;40.45;32.80;;;18.90;99.90;;;;;;4983919;28;20229;-74
2021/08/20 12:27:25;;;;;;;42.80;33.88;;;19.10;99.90;;;;;;4985532;28;20065;-74
2021/08/20 12:29:58;;;;;;;33.47;28.20;;;19.50;99.90;;;;;;4981753;28;20113;-74
2021/08/20 12:32:26;;;;;;;41.15;31.33;;;19.80;99.90;;;;;;4967226;28;20054;-74
2021/08/20 12:35:00;;;;;;;34.05;29.20;;;19.50;99.90;;;;;;4983826;28;20069;-75
2021/08/20 12:37:31;;;;;;;34.80;31.00;;;19.60;99.90;;;;;;4981596;28;20478;-74
2021/08/20 12:40:04;;;;;;;33.60;29.20;;;19.60;99.90;;;;;;4981603;28;20047;-74
2021/08/20 12:42:31;;;;;;;36.13;31.17;;;19.50;99.90;;;;;;4985591;28;20046;-73
2021/08/20 12:45:27;;;;;;;35.40;31.60;;;19.60;99.90;;;;;;4976535;28;20058;-73